Time;durP1;ratioP1;P1;durP2;ratioP2;P2;SDS_P1;SDS_P2;PMS_P1;PMS_P2;Temp;Humidity;BMP_temperature;BMP_pressure;BME280_temperature;BME280_humidity;BME280_pressure;Samples;Min_cycle;Max_cycle;Signal;HPM_P1;HPM_P2
2023/04/06 00:01:30;;;;;;;6.72;3.78;;;2.70;99.90;;;;;;4764885;30;20075;-78
2023/04/06 00:03:55;;;;;;;5.75;3.65;;;2.70;99.90;;;;;;4752338;30;20050;-79
2023/04/06 00:06:21;;;;;;;4.93;3.55;;;2.80;99.90;;;;;;4770504;30;20035;-78
2023/04/06 00:08:47;;;;;;;5.10;2.75;;;2.80;99.90;;;;;;4768657;30;20101;-78
2023/04/06 00:11:12;;;;;;;6.00;3.00;;;2.90;99.90;;;;;;4765684;30;20066;-79
2023/04/06 00:13:38;;;;;;;4.47;3.05;;;2.90;99.90;;;;;;4748568;30;20050;-79
2023/04/06 00:16:05;;;;;;;7.38;3.25;;;3.00;99.90;;;;;;4751476;30;20060;-78
2023/04/06 00:18:31;;;;;;;9.70;4.15;;;3.00;99.90;;;;;;4752266;30;20048;-80
2023/04/06 00:20:56;;;;;;;5.40;3.10;;;3.10;99.90;;;;;;4757166;30;20043;-79
2023/04/06 00:23:22;;;;;;;5.30;3.75;;;2.90;99.90;;;;;;4771786;30;20488;-79
2023/04/06 00:25:48;;;;;;;5.78;3.10;;;2.90;99.90;;;;;;4771680;30;20039;-79
2023/04/06 00:28:13;;;;;;;5.43;3.97;;;2.90;99.90;;;;;;4755933;30;20047;-78
2023/04/06 00:30:40;;;;;;;5.90;3.95;;;2.90;99.90;;;;;;4758041;30;20058;-79
2023/04/06 00:33:06;;;;;;;5.55;3.92;;;2.90;99.90;;;;;;4770303;30;20138;-79
2023/04/06 00:35:31;;;;;;;5.60;3.08;;;2.80;99.90;;;;;;4761945;30;20126;-79
2023/04/06 00:37:57;;;;;;;5.20;3.90;;;2.80;99.90;;;;;;4759391;30;20157;-78
2023/04/06 00:40:23;;;;;;;6.22;4.43;;;2.70;99.90;;;;;;4772883;30;20193;-78
2023/04/06 00:42:48;;;;;;;5.38;4.63;;;2.70;99.90;;;;;;4771612;30;22384;-78
2023/04/06 00:45:14;;;;;;;6.10;3.58;;;2.60;99.90;;;;;;4772078;30;20552;-79
2023/04/06 00:47:39;;;;;;;4.45;3.88;;;2.60;99.90;;;;;;4770863;30;20125;-79
2023/04/06 00:50:06;;;;;;;5.25;3.40;;;2.60;99.90;;;;;;4759311;30;20191;-78
2023/04/06 00:52:31;;;;;;;4.18;3.17;;;2.50;99.90;;;;;;4772009;30;20055;-78
2023/04/06 00:54:57;;;;;;;7.30;3.58;;;2.40;99.90;;;;;;4772553;30;20036;-78
2023/04/06 00:57:22;;;;;;;6.90;3.70;;;2.30;99.90;;;;;;4770083;30;20499;-78
2023/04/06 00:59:48;;;;;;;6.30;3.22;;;2.30;99.90;;;;;;4768633;30;20044;-78
2023/04/06 01:02:14;;;;;;;4.93;3.45;;;2.30;99.90;;;;;;4755148;30;20036;-80
2023/04/06 01:04:40;;;;;;;3.88;2.78;;;2.40;99.90;;;;;;4770966;30;20051;-79
2023/04/06 01:07:05;;;;;;;4.00;3.60;;;2.50;99.90;;;;;;4772477;30;20484;-78
2023/04/06 01:09:31;;;;;;;7.32;3.65;;;2.50;99.90;;;;;;4756542;30;20052;-79
2023/04/06 01:11:59;;;;;;;3.92;3.55;;;2.50;99.90;;;;;;4756603;30;20051;-79
2023/04/06 01:14:25;;;;;;;7.53;3.60;;;2.50;99.90;;;;;;4771804;30;20047;-80
2023/04/06 01:16:51;;;;;;;4.03;3.35;;;2.40;99.90;;;;;;4759837;30;20048;-79
2023/04/06 01:19:17;;;;;;;6.03;3.20;;;2.20;99.90;;;;;;4772242;30;20059;-78
2023/04/06 01:21:43;;;;;;;5.18;3.40;;;2.10;99.90;;;;;;4772254;30;20395;-79
2023/04/06 01:24:09;;;;;;;8.23;3.58;;;2.10;99.90;;;;;;4756261;30;20039;-78
2023/04/06 01:26:35;;;;;;;4.30;3.00;;;1.90;99.90;;;;;;4756308;30;20047;-80
2023/04/06 01:29:02;;;;;;;3.65;3.00;;;2.00;99.90;;;;;;4755029;30;20054;-78
2023/04/06 01:31:27;;;;;;;3.72;3.40;;;1.90;99.90;;;;;;4754269;30;20051;-79
2023/04/06 01:33:54;;;;;;;4.38;3.30;;;1.90;99.90;;;;;;4769080;30;20054;-79
2023/04/06 01:36:20;;;;;;;8.35;3.67;;;1.80;99.90;;;;;;4770147;30;20054;-79
2023/04/06 01:38:46;;;;;;;4.43;3.72;;;1.80;99.90;;;;;;4756080;30;20043;-79
2023/04/06 01:41:11;;;;;;;4.78;3.40;;;1.70;99.90;;;;;;4768171;30;20108;-78
2023/04/06 01:43:37;;;;;;;4.38;3.30;;;1.60;99.90;;;;;;4767195;30;20119;-78
2023/04/06 01:46:02;;;;;;;4.60;3.75;;;1.70;99.90;;;;;;4767569;30;20526;-79
2023/04/06 01:48:28;;;;;;;9.45;4.50;;;1.60;99.90;;;;;;4752588;30;20066;-79
2023/04/06 01:50:54;;;;;;;9.40;5.03;;;1.70;99.90;;;;;;4752574;30;20044;-79
2023/04/06 01:53:20;;;;;;;8.60;3.33;;;1.80;99.90;;;;;;4751701;30;20040;-78
2023/04/06 01:55:46;;;;;;;5.32;3.63;;;1.90;99.90;;;;;;4768250;30;20054;-79
2023/04/06 01:58:12;;;;;;;4.85;3.30;;;1.90;99.90;;;;;;4753477;30;20122;-78
2023/04/06 02:00:37;;;;;;;5.00;3.75;;;2.00;99.90;;;;;;4753766;30;20139;-78
2023/04/06 02:03:03;;;;;;;5.35;3.88;;;1.90;99.90;;;;;;4755405;30;20455;-79
2023/04/06 02:05:30;;;;;;;6.80;3.75;;;1.80;99.90;;;;;;4767906;30;20522;-79
2023/04/06 02:07:56;;;;;;;4.80;3.97;;;1.80;99.90;;;;;;4767780;30;20116;-79
2023/04/06 02:10:22;;;;;;;7.07;4.72;;;1.70;99.90;;;;;;4766973;30;20570;-79
2023/04/06 02:12:48;;;;;;;7.35;4.32;;;1.70;99.90;;;;;;4755153;30;20484;-79
2023/04/06 02:15:14;;;;;;;7.00;4.10;;;1.70;99.90;;;;;;4735706;30;20178;-79
2023/04/06 02:17:40;;;;;;;5.07;4.57;;;1.70;99.90;;;;;;4768246;30;20050;-79
2023/04/06 02:20:07;;;;;;;9.98;4.75;;;1.60;99.90;;;;;;4751663;30;20044;-79
2023/04/06 02:22:33;;;;;;;8.23;4.10;;;2.50;99.90;;;;;;4763991;30;20047;-80
2023/04/06 02:24:58;;;;;;;6.15;3.63;;;1.60;99.90;;;;;;4751766;30;20729;-78
2023/04/06 02:27:24;;;;;;;6.00;3.45;;;1.60;99.90;;;;;;4752091;30;20490;-78
2023/04/06 02:29:50;;;;;;;7.55;3.75;;;1.60;99.90;;;;;;4751317;30;20104;-80
2023/04/06 02:32:15;;;;;;;4.55;3.85;;;1.50;99.90;;;;;;4749340;30;20138;-79
2023/04/06 02:34:41;;;;;;;5.30;3.85;;;1.50;99.90;;;;;;4751037;30;20048;-79
2023/04/06 02:37:06;;;;;;;5.05;3.83;;;1.40;99.90;;;;;;4768743;30;20048;-79
2023/04/06 02:39:32;;;;;;;5.38;4.10;;;1.40;99.90;;;;;;4768701;30;20047;-78
2023/04/06 02:41:57;;;;;;;4.30;3.80;;;1.40;99.90;;;;;;4747024;30;20496;-78
2023/04/06 02:44:23;;;;;;;7.72;3.80;;;1.40;99.90;;;;;;4768439;30;20032;-78
2023/04/06 02:46:48;;;;;;;5.22;3.97;;;1.30;99.90;;;;;;4768372;30;20075;-77
2023/04/06 02:49:14;;;;;;;6.25;3.38;;;1.30;99.90;;;;;;4768551;30;20106;-79
2023/04/06 02:51:40;;;;;;;6.13;4.35;;;1.30;99.90;;;;;;4768555;30;20048;-78
2023/04/06 02:54:05;;;;;;;7.05;4.35;;;1.20;99.90;;;;;;4767254;30;20064;-78
2023/04/06 02:56:31;;;;;;;5.47;4.38;;;1.30;99.90;;;;;;4751388;30;20490;-79
2023/04/06 02:58:56;;;;;;;7.47;4.72;;;1.30;99.90;;;;;;4751479;30;20345;-79
2023/04/06 03:01:22;;;;;;;9.52;4.00;;;1.30;99.90;;;;;;4751898;30;20058;-78
2023/04/06 03:03:47;;;;;;;5.82;4.57;;;1.20;99.90;;;;;;4755009;30;20058;-78
2023/04/06 03:06:13;;;;;;;7.43;4.55;;;1.20;99.90;;;;;;4751725;30;20051;-81
2023/04/06 03:08:38;;;;;;;5.90;3.58;;;1.30;99.90;;;;;;4768219;30;20761;-78
2023/04/06 03:11:04;;;;;;;6.10;3.63;;;1.20;99.90;;;;;;4768196;30;20725;-78
2023/04/06 03:13:30;;;;;;;5.18;4.05;;;1.30;99.90;;;;;;4771443;30;20051;-78
2023/04/06 03:15:55;;;;;;;5.78;4.18;;;1.60;99.90;;;;;;4766680;30;20496;-78
2023/04/06 03:18:25;;;;;;;5.25;4.38;;;1.40;99.90;;;;;;4768969;30;20048;-78
2023/04/06 03:20:51;;;;;;;6.30;4.15;;;1.20;99.90;;;;;;4767338;30;20043;-78
2023/04/06 03:23:16;;;;;;;5.20;3.97;;;1.10;99.90;;;;;;4766735;30;20043;-78
2023/04/06 03:25:42;;;;;;;10.05;4.28;;;1.30;99.90;;;;;;4752341;30;20067;-78
2023/04/06 03:28:07;;;;;;;4.97;3.83;;;1.30;99.90;;;;;;4766774;30;20035;-80
2023/04/06 03:30:34;;;;;;;7.18;4.25;;;1.30;99.90;;;;;;4768166;30;20051;-78
2023/04/06 03:33:00;;;;;;;5.32;3.78;;;1.40;99.90;;;;;;4750044;30;20043;-79
2023/04/06 03:35:25;;;;;;;6.90;3.97;;;1.40;99.90;;;;;;4764596;30;20036;-78
2023/04/06 03:37:51;;;;;;;6.82;4.57;;;1.50;99.90;;;;;;4766101;30;20052;-79
2023/04/06 03:40:16;;;;;;;6.78;4.45;;;1.50;99.90;;;;;;4767616;30;20040;-78
2023/04/06 03:42:42;;;;;;;7.57;4.85;;;1.40;99.90;;;;;;4762931;30;20411;-77
2023/04/06 03:45:08;;;;;;;7.65;5.03;;;1.40;99.90;;;;;;4753680;30;20055;-78
2023/04/06 03:47:33;;;;;;;8.50;4.45;;;1.50;99.90;;;;;;4751735;30;20048;-78
2023/04/06 03:49:59;;;;;;;5.95;4.05;;;1.30;99.90;;;;;;4756182;30;20459;-78
2023/04/06 03:52:25;;;;;;;7.88;4.32;;;1.40;99.90;;;;;;4764282;30;20499;-78
2023/04/06 03:54:50;;;;;;;5.68;4.88;;;1.40;99.90;;;;;;4750067;30;20443;-78
2023/04/06 03:57:16;;;;;;;9.13;5.13;;;1.40;99.90;;;;;;4764351;30;20082;-78
2023/04/06 03:59:41;;;;;;;6.25;4.13;;;1.20;99.90;;;;;;4765998;30;20083;-78
2023/04/06 04:02:07;;;;;;;5.68;4.57;;;1.30;99.90;;;;;;4761425;30;20055;-79
2023/04/06 04:04:32;;;;;;;8.10;4.70;;;1.30;99.90;;;;;;4753401;30;20474;-78
2023/04/06 04:06:58;;;;;;;4.82;4.10;;;1.30;99.90;;;;;;4753372;30;20047;-80
2023/04/06 04:09:23;;;;;;;8.82;4.78;;;1.30;99.90;;;;;;4767186;30;20047;-78
2023/04/06 04:11:49;;;;;;;7.10;5.10;;;1.30;99.90;;;;;;4768051;30;20050;-78
2023/04/06 04:14:14;;;;;;;9.23;5.03;;;1.20;99.90;;;;;;4749296;30;20050;-78
2023/04/06 04:16:41;;;;;;;6.93;5.25;;;1.20;99.90;;;;;;4749688;30;20051;-78
2023/04/06 04:19:07;;;;;;;10.30;4.88;;;1.20;99.90;;;;;;4767000;30;20119;-78
2023/04/06 04:21:32;;;;;;;5.95;4.50;;;1.10;99.90;;;;;;4766202;30;20130;-78
2023/04/06 04:23:58;;;;;;;8.00;5.10;;;1.20;99.90;;;;;;4751172;30;20101;-78
2023/04/06 04:26:23;;;;;;;7.30;4.93;;;1.20;99.90;;;;;;4749428;30;20050;-78
2023/04/06 04:28:49;;;;;;;7.65;5.13;;;1.20;99.90;;;;;;4764476;30;20561;-78
2023/04/06 04:31:17;;;;;;;8.13;5.30;;;1.20;99.90;;;;;;4764795;30;20548;-78
2023/04/06 04:33:43;;;;;;;6.43;4.43;;;1.20;99.90;;;;;;4751042;30;20066;-78
2023/04/06 04:36:09;;;;;;;7.40;5.18;;;1.20;99.90;;;;;;4750987;30;20048;-78
2023/04/06 04:38:35;;;;;;;8.77;5.55;;;1.30;99.90;;;;;;4752889;30;20075;-79
2023/04/06 04:41:01;;;;;;;9.95;5.22;;;1.20;99.90;;;;;;4768592;30;20091;-78
2023/04/06 04:43:26;;;;;;;7.53;6.00;;;1.20;99.90;;;;;;4759335;30;20039;-81
2023/04/06 04:45:52;;;;;;;9.57;5.85;;;1.20;99.90;;;;;;4756424;30;20127;-78
2023/04/06 04:48:17;;;;;;;7.18;5.75;;;1.20;99.90;;;;;;4765646;30;20183;-77
2023/04/06 04:50:43;;;;;;;6.82;5.78;;;1.30;99.90;;;;;;4757895;30;20067;-77
2023/04/06 04:53:08;;;;;;;10.63;5.68;;;1.30;99.90;;;;;;4766545;30;20643;-77
2023/04/06 04:55:34;;;;;;;7.50;5.78;;;1.30;99.90;;;;;;4762944;30;20093;-77
2023/04/06 04:58:00;;;;;;;8.77;5.35;;;1.30;99.90;;;;;;4746952;30;20058;-79
2023/04/06 05:00:25;;;;;;;27.02;6.53;;;1.30;99.90;;;;;;4763690;30;20048;-79
2023/04/06 05:02:51;;;;;;;9.10;5.47;;;1.30;99.90;;;;;;4750264;30;20531;-78
2023/04/06 05:05:16;;;;;;;9.45;5.90;;;1.30;99.90;;;;;;4765255;30;20091;-77
2023/04/06 05:07:42;;;;;;;10.93;6.05;;;1.30;99.90;;;;;;4768979;30;20060;-77
2023/04/06 05:10:08;;;;;;;10.07;4.97;;;1.40;99.90;;;;;;4757598;30;20047;-78
2023/04/06 05:12:34;;;;;;;6.07;5.15;;;1.50;99.90;;;;;;4757891;30;20495;-79
2023/04/06 05:14:59;;;;;;;8.02;5.63;;;1.70;99.90;;;;;;4752412;30;20048;-78
2023/04/06 05:17:25;;;;;;;8.75;4.88;;;1.80;99.90;;;;;;4752405;30;20554;-75
2023/04/06 05:19:51;;;;;;;7.85;5.30;;;2.00;99.90;;;;;;4754183;30;20148;-78
2023/04/06 05:22:17;;;;;;;12.00;5.53;;;2.20;99.90;;;;;;4751763;30;20055;-76
2023/04/06 05:24:43;;;;;;;6.40;4.68;;;2.30;99.90;;;;;;4763795;30;20060;-78
2023/04/06 05:27:09;;;;;;;8.82;5.45;;;2.50;99.90;;;;;;4765772;30;20089;-78
2023/04/06 05:29:35;;;;;;;7.47;5.30;;;2.70;99.90;;;;;;4749890;30;20051;-78
2023/04/06 05:32:01;;;;;;;13.00;5.72;;;3.10;99.90;;;;;;4749051;30;20040;-78
2023/04/06 05:34:26;;;;;;;7.50;4.72;;;3.70;99.90;;;;;;4751324;30;20059;-78
2023/04/06 05:36:52;;;;;;;10.38;5.40;;;4.40;99.90;;;;;;4748260;30;20423;-77
2023/04/06 05:39:17;;;;;;;5.65;4.47;;;5.00;99.90;;;;;;4766105;30;20043;-76
2023/04/06 05:41:43;;;;;;;6.65;4.90;;;5.40;99.90;;;;;;4766060;30;20047;-76
2023/04/06 05:44:09;;;;;;;6.93;5.07;;;5.70;99.90;;;;;;4768920;30;20043;-76
2023/04/06 05:46:34;;;;;;;6.50;5.03;;;6.10;99.90;;;;;;4765755;30;20166;-76
2023/04/06 05:49:00;;;;;;;10.57;4.75;;;6.30;99.90;;;;;;4749084;30;20449;-76
2023/04/06 05:51:27;;;;;;;8.02;5.68;;;6.50;99.90;;;;;;4767865;30;20058;-78
2023/04/06 05:53:52;;;;;;;9.07;5.40;;;6.70;99.90;;;;;;4767770;30;20051;-75
2023/04/06 05:56:18;;;;;;;5.53;4.97;;;7.00;99.90;;;;;;4749842;30;21514;-77
2023/04/06 05:58:44;;;;;;;8.10;4.90;;;7.20;99.90;;;;;;4752037;30;20055;-79
2023/04/06 06:01:10;;;;;;;7.07;4.55;;;7.60;99.90;;;;;;4749633;30;20062;-76
2023/04/06 06:03:35;;;;;;;6.97;5.28;;;8.00;99.90;;;;;;4749959;30;20426;-78
2023/04/06 06:06:02;;;;;;;8.75;5.03;;;8.80;99.90;;;;;;4766639;30;20050;-77
2023/04/06 06:08:28;;;;;;;7.70;4.60;;;9.10;99.90;;;;;;4765535;30;20123;-78
2023/04/06 06:10:55;;;;;;;11.90;4.95;;;9.40;99.90;;;;;;4764712;30;20055;-77
2023/04/06 06:13:21;;;;;;;10.73;4.50;;;9.70;99.90;;;;;;4765991;30;20036;-77
2023/04/06 06:15:47;;;;;;;9.27;4.60;;;10.10;99.90;;;;;;4749338;30;20062;-78
2023/04/06 06:18:12;;;;;;;5.65;4.05;;;10.60;99.90;;;;;;4745298;30;20051;-78
2023/04/06 06:20:38;;;;;;;7.65;5.15;;;10.70;99.70;;;;;;4748853;30;20082;-78
2023/04/06 06:23:06;;;;;;;8.52;4.60;;;11.30;99.70;;;;;;4748123;30;20503;-77
2023/04/06 06:25:32;;;;;;;5.55;4.30;;;12.10;99.60;;;;;;4750282;30;21201;-77
2023/04/06 06:27:59;;;;;;;4.85;4.43;;;12.90;99.90;;;;;;4761005;30;20055;-79
2023/04/06 06:30:24;;;;;;;6.45;4.50;;;13.50;98.90;;;;;;4765644;30;20111;-77
2023/04/06 06:32:51;;;;;;;4.80;3.58;;;13.60;97.90;;;;;;4764750;30;20649;-76
2023/04/06 06:35:16;;;;;;;5.32;4.38;;;14.40;97.60;;;;;;4746111;30;20043;-77
2023/04/06 06:37:42;;;;;;;8.18;4.57;;;15.00;96.40;;;;;;4753841;30;20108;-77
2023/04/06 06:40:12;;;;;;;7.78;4.80;;;15.50;95.50;;;;;;4750298;30;20054;-77
2023/04/06 06:42:39;;;;;;;5.78;4.13;;;16.10;94.50;;;;;;4764799;30;20056;-77
2023/04/06 06:45:06;;;;;;;5.47;4.43;;;16.20;94.30;;;;;;4762942;30;20066;-77
2023/04/06 06:47:32;;;;;;;5.82;4.47;;;16.20;93.30;;;;;;4747705;30;20055;-77
2023/04/06 06:49:58;;;;;;;4.75;4.35;;;15.50;91.90;;;;;;4761369;30;20054;-77
2023/04/06 06:52:23;;;;;;;5.25;4.07;;;15.80;92.60;;;;;;4765179;30;20557;-77
2023/04/06 06:54:49;;;;;;;7.15;4.47;;;16.10;93.00;;;;;;4765527;30;20672;-77
2023/04/06 06:57:15;;;;;;;8.35;4.82;;;16.40;92.10;;;;;;4747344;30;20051;-77
2023/04/06 06:59:40;;;;;;;7.03;5.43;;;16.60;92.40;;;;;;4763030;30;20039;-77
2023/04/06 07:02:06;;;;;;;7.30;5.20;;;16.40;91.10;;;;;;4746199;30;20051;-78
2023/04/06 07:04:32;;;;;;;9.52;5.55;;;15.90;91.10;;;;;;4761218;30;20060;-78
2023/04/06 07:06:58;;;;;;;7.38;5.57;;;15.80;90.60;;;;;;4749451;30;20056;-78
2023/04/06 07:09:23;;;;;;;6.75;5.43;;;15.30;90.80;;;;;;4765987;30;20039;-77
2023/04/06 07:11:49;;;;;;;6.32;5.28;;;15.00;91.50;;;;;;4763025;30;20140;-77
2023/04/06 07:14:16;;;;;;;7.82;5.38;;;14.70;92.00;;;;;;4763548;30;20054;-77
2023/04/06 07:16:41;;;;;;;9.98;5.07;;;14.60;91.70;;;;;;4746231;30;20075;-77
2023/04/06 07:19:09;;;;;;;8.27;5.50;;;14.30;91.60;;;;;;4748053;30;20055;-80
2023/04/06 07:21:35;;;;;;;7.65;5.20;;;13.80;92.20;;;;;;4748968;30;20047;-78
2023/04/06 07:24:01;;;;;;;10.38;5.47;;;13.30;92.40;;;;;;4764832;30;20055;-77
2023/04/06 07:26:27;;;;;;;8.68;6.38;;;12.70;93.10;;;;;;4764463;30;20043;-79
2023/04/06 07:28:52;;;;;;;8.73;6.00;;;12.20;93.10;;;;;;4762817;30;20043;-77
2023/04/06 07:31:18;;;;;;;8.85;5.88;;;11.70;93.20;;;;;;4765870;30;20036;-78
2023/04/06 07:33:44;;;;;;;8.65;5.50;;;11.20;93.80;;;;;;4763059;30;20062;-77
2023/04/06 07:36:09;;;;;;;9.13;6.40;;;11.10;94.20;;;;;;4749701;30;20068;-78
2023/04/06 07:38:35;;;;;;;11.25;6.25;;;10.80;94.60;;;;;;4765083;30;20036;-78
2023/04/06 07:41:03;;;;;;;7.72;6.93;;;10.70;94.70;;;;;;4762133;30;20055;-77
2023/04/06 07:43:30;;;;;;;7.85;6.35;;;10.40;94.90;;;;;;4764114;30;20051;-78
2023/04/06 07:45:57;;;;;;;8.52;6.25;;;10.10;95.50;;;;;;4763598;30;20422;-78
2023/04/06 07:48:23;;;;;;;10.30;6.65;;;10.10;95.50;;;;;;4749602;30;20418;-78
2023/04/06 07:50:48;;;;;;;7.38;6.55;;;10.10;95.60;;;;;;4763502;30;20058;-77
2023/04/06 07:53:14;;;;;;;9.88;7.00;;;10.10;95.80;;;;;;4748140;30;20380;-77
2023/04/06 07:55:40;;;;;;;11.45;6.57;;;10.30;96.00;;;;;;4764903;30;20147;-77
2023/04/06 07:58:05;;;;;;;9.80;6.95;;;10.30;96.40;;;;;;4763464;30;20117;-77
2023/04/06 08:00:31;;;;;;;11.38;7.20;;;10.00;96.10;;;;;;4762803;30;20109;-77
2023/04/06 08:02:56;;;;;;;8.45;6.80;;;9.80;95.90;;;;;;4760134;30;20043;-78
2023/04/06 08:05:22;;;;;;;9.18;6.60;;;9.80;96.30;;;;;;4765248;30;20530;-79
2023/04/06 08:07:48;;;;;;;10.23;6.95;;;9.80;96.40;;;;;;4749286;30;20048;-78
2023/04/06 08:10:13;;;;;;;6.68;5.97;;;9.90;96.70;;;;;;4749229;30;20106;-77
2023/04/06 08:12:39;;;;;;;11.65;6.50;;;10.00;97.20;;;;;;4747527;30;20047;-77
2023/04/06 08:15:05;;;;;;;8.15;7.18;;;10.20;97.30;;;;;;4764635;30;20070;-77
2023/04/06 08:17:32;;;;;;;9.27;7.65;;;10.50;97.70;;;;;;4747775;30;20115;-77
2023/04/06 08:19:57;;;;;;;9.25;6.90;;;10.70;97.10;;;;;;4746445;30;20039;-78
2023/04/06 08:22:23;;;;;;;9.48;6.93;;;11.10;96.90;;;;;;4762402;30;20609;-77
2023/04/06 08:24:48;;;;;;;9.20;7.13;;;11.50;96.80;;;;;;4763027;30;20048;-78
2023/04/06 08:27:14;;;;;;;9.82;7.60;;;11.50;96.90;;;;;;4760917;30;20062;-78
2023/04/06 08:29:40;;;;;;;8.25;7.07;;;11.30;96.50;;;;;;4762681;30;20089;-78
2023/04/06 08:32:06;;;;;;;11.18;7.70;;;11.30;96.40;;;;;;4747158;30;20729;-78
2023/04/06 08:34:35;;;;;;;8.75;7.63;;;11.10;96.30;;;;;;4762489;30;20047;-79
2023/04/06 08:37:00;;;;;;;11.43;7.57;;;11.50;96.50;;;;;;4763306;30;20059;-78
2023/04/06 08:39:27;;;;;;;12.43;6.97;;;11.40;96.50;;;;;;4749129;30;20399;-78
2023/04/06 08:41:56;;;;;;;9.45;7.20;;;11.90;96.70;;;;;;4751552;30;20043;-78
2023/04/06 08:44:22;;;;;;;11.10;7.95;;;12.40;97.70;;;;;;4752130;30;20059;-78
2023/04/06 08:46:50;;;;;;;11.23;7.22;;;12.60;96.50;;;;;;4764665;30;20056;-78
2023/04/06 08:49:16;;;;;;;8.70;7.22;;;12.80;95.70;;;;;;4755886;30;20404;-78
2023/04/06 08:51:42;;;;;;;9.35;7.60;;;12.60;94.60;;;;;;4767103;30;20050;-78
2023/04/06 08:54:08;;;;;;;11.50;7.47;;;12.60;95.20;;;;;;4752601;30;20070;-78
2023/04/06 08:56:37;;;;;;;12.40;7.88;;;12.40;93.60;;;;;;4766040;30;20511;-79
2023/04/06 08:59:03;;;;;;;12.55;7.90;;;12.30;93.40;;;;;;4749984;30;20515;-78
2023/04/06 09:01:30;;;;;;;9.77;7.93;;;12.00;93.40;;;;;;4748797;30;20054;-78
2023/04/06 09:03:58;;;;;;;13.57;8.63;;;12.00;93.90;;;;;;4750061;30;20209;-77
2023/04/06 09:06:26;;;;;;;11.35;7.60;;;12.00;94.60;;;;;;4766414;30;20048;-78
2023/04/06 09:08:52;;;;;;;12.55;7.93;;;12.00;93.90;;;;;;4766302;30;20060;-78
2023/04/06 09:11:18;;;;;;;10.25;9.10;;;12.00;94.80;;;;;;4765922;30;20511;-78
2023/04/06 09:13:52;;;;;;;11.13;8.23;;;12.00;94.30;;;;;;4750803;30;20075;-78
2023/04/06 09:16:18;;;;;;;12.40;8.60;;;12.10;94.70;;;;;;4749279;30;20055;-78
2023/04/06 09:18:44;;;;;;;12.18;8.75;;;12.10;94.80;;;;;;4749256;30;20138;-78
2023/04/06 09:21:11;;;;;;;10.77;9.52;;;12.10;94.50;;;;;;4766588;30;20126;-79
2023/04/06 09:23:37;;;;;;;11.02;9.25;;;12.10;94.10;;;;;;4764877;30;20044;-78
2023/04/06 09:26:15;;;;;;;11.15;9.32;;;12.10;93.80;;;;;;4766366;30;20185;-78
2023/04/06 09:28:49;;;;;;;15.85;9.80;;;12.10;94.70;;;;;;4765619;30;20047;-78
2023/04/06 09:31:29;;;;;;;15.63;9.52;;;12.00;94.40;;;;;;4749772;30;20055;-78
2023/04/06 09:33:56;;;;;;;13.48;10.25;;;12.10;94.50;;;;;;4759161;30;20067;-78
2023/04/06 09:36:40;;;;;;;14.20;10.20;;;12.00;94.00;;;;;;4763100;30;20044;-78
2023/04/06 09:39:06;;;;;;;10.95;9.02;;;12.10;94.80;;;;;;4764178;30;20051;-78
2023/04/06 09:41:33;;;;;;;14.80;10.93;;;12.10;95.60;;;;;;4751226;30;20096;-78
2023/04/06 09:44:03;;;;;;;10.98;9.70;;;12.00;95.00;;;;;;4750105;30;20411;-77
2023/04/06 09:46:34;;;;;;;13.55;11.20;;;12.00;94.40;;;;;;4766759;30;20036;-77
2023/04/06 09:49:02;;;;;;;15.60;11.25;;;11.90;95.20;;;;;;4750880;30;20130;-78
2023/04/06 09:51:35;;;;;;;12.10;10.75;;;11.90;95.50;;;;;;4749614;30;20055;-77
2023/04/06 09:54:03;;;;;;;12.00;9.82;;;11.80;95.60;;;;;;4750096;30;20047;-79
2023/04/06 09:56:52;;;;;;;14.18;11.27;;;12.00;95.20;;;;;;4750494;30;20055;-79
2023/04/06 09:59:45;;;;;;;13.73;11.27;;;12.30;95.30;;;;;;4745692;30;20168;-77
2023/04/06 10:02:31;;;;;;;13.73;11.25;;;12.50;95.70;;;;;;4743350;30;20047;-75
2023/04/06 10:05:05;;;;;;;15.20;12.05;;;12.80;94.30;;;;;;4764936;30;20113;-78
2023/04/06 10:07:31;;;;;;;16.40;11.82;;;12.70;93.80;;;;;;4749896;30;20119;-77
2023/04/06 10:10:00;;;;;;;17.75;12.52;;;13.10;93.90;;;;;;4766126;30;20062;-78
2023/04/06 10:12:25;;;;;;;16.23;12.50;;;13.10;92.70;;;;;;4750620;30;20554;-78
2023/04/06 10:14:51;;;;;;;15.70;12.27;;;13.10;93.10;;;;;;4752532;30;20054;-77
2023/04/06 10:17:17;;;;;;;16.20;12.35;;;13.30;93.70;;;;;;4753035;30;20418;-77
2023/04/06 10:20:23;;;;;;;19.80;13.95;;;13.60;94.00;;;;;;4751140;30;20058;-78
2023/04/06 10:22:58;;;;;;;15.10;13.17;;;13.70;92.80;;;;;;4719581;30;20062;-77
2023/04/06 10:25:31;;;;;;;14.07;12.57;;;13.80;92.10;;;;;;4764387;30;20072;-78
2023/04/06 10:28:01;;;;;;;18.10;12.65;;;13.80;91.30;;;;;;4768809;30;20520;-79
2023/04/06 10:30:28;;;;;;;24.98;14.13;;;14.00;92.70;;;;;;4749952;30;20059;-79
2023/04/06 10:32:54;;;;;;;16.58;12.50;;;14.00;93.10;;;;;;4763039;30;20113;-78
2023/04/06 10:35:21;;;;;;;19.45;14.35;;;14.10;92.70;;;;;;4764496;30;20070;-77
2023/04/06 10:37:52;;;;;;;18.58;13.43;;;14.00;93.00;;;;;;4766137;30;20155;-79
2023/04/06 10:40:25;;;;;;;15.95;13.15;;;13.80;91.50;;;;;;4763561;30;20086;-77
2023/04/06 10:42:53;;;;;;;17.17;14.88;;;13.60;92.50;;;;;;4764076;30;20036;-79
2023/04/06 10:45:23;;;;;;;17.88;13.52;;;13.50;92.30;;;;;;4764767;30;20055;-77
2023/04/06 10:47:51;;;;;;;18.85;14.63;;;13.40;91.80;;;;;;4760525;30;20063;-79
2023/04/06 10:50:17;;;;;;;17.80;15.82;;;13.30;91.10;;;;;;4766030;30;20052;-77
2023/04/06 10:52:45;;;;;;;18.48;15.50;;;13.40;92.80;;;;;;4748252;30;20056;-78
2023/04/06 10:55:14;;;;;;;20.65;16.13;;;13.40;93.40;;;;;;4742846;30;20059;-78
2023/04/06 10:57:40;;;;;;;19.52;15.18;;;13.30;91.60;;;;;;4762124;30;20806;-78
2023/04/06 11:00:07;;;;;;;21.80;16.48;;;13.30;91.70;;;;;;4765808;30;20032;-80
2023/04/06 11:02:34;;;;;;;20.70;15.63;;;13.10;91.30;;;;;;4749561;30;20850;-79
2023/04/06 11:05:00;;;;;;;20.67;15.50;;;13.10;91.70;;;;;;4749077;30;20109;-78
2023/04/06 11:07:27;;;;;;;18.15;15.13;;;13.10;91.50;;;;;;4750934;30;20056;-78
2023/04/06 11:09:52;;;;;;;22.75;17.08;;;13.10;92.30;;;;;;4766229;30;20044;-78
2023/04/06 11:12:26;;;;;;;21.77;17.42;;;13.00;92.60;;;;;;4747995;30;20108;-79
2023/04/06 11:15:05;;;;;;;22.38;17.52;;;13.00;92.50;;;;;;4765555;30;20090;-78
2023/04/06 11:17:33;;;;;;;21.38;17.88;;;13.10;93.00;;;;;;4746872;30;20047;-78
2023/04/06 11:19:59;;;;;;;27.08;19.05;;;13.10;92.90;;;;;;4747999;30;20044;-78
2023/04/06 11:22:26;;;;;;;25.60;19.95;;;13.10;91.90;;;;;;4750460;30;20108;-78
2023/04/06 11:24:52;;;;;;;23.02;19.25;;;13.10;91.40;;;;;;4762859;30;20735;-78
2023/04/06 11:27:19;;;;;;;25.35;18.52;;;13.10;90.80;;;;;;4764477;30;20048;-77
2023/04/06 11:29:49;;;;;;;21.38;17.33;;;13.00;91.70;;;;;;4747318;30;20056;-78
2023/04/06 11:32:23;;;;;;;26.30;19.50;;;13.10;91.50;;;;;;4764530;30;20671;-78
2023/04/06 11:34:49;;;;;;;24.55;20.40;;;13.00;90.90;;;;;;4764416;30;20506;-77
2023/04/06 11:37:14;;;;;;;21.88;17.83;;;13.00;92.40;;;;;;4763832;30;20192;-78
2023/04/06 11:39:47;;;;;;;23.35;19.13;;;13.10;92.30;;;;;;4749747;30;20534;-78
2023/04/06 11:42:20;;;;;;;24.90;18.52;;;13.10;93.00;;;;;;4748503;30;20511;-78
2023/04/06 11:44:46;;;;;;;23.33;19.85;;;13.20;91.70;;;;;;4749422;30;20048;-79
2023/04/06 11:47:12;;;;;;;21.70;18.20;;;13.10;93.10;;;;;;4749081;30;20052;-78
2023/04/06 11:49:40;;;;;;;25.05;19.33;;;13.20;93.30;;;;;;4764295;30;20118;-78
2023/04/06 11:52:20;;;;;;;23.30;19.30;;;13.10;91.40;;;;;;4764509;30;20048;-78
2023/04/06 11:54:47;;;;;;;21.98;18.67;;;13.10;91.50;;;;;;4749599;30;20550;-78
2023/04/06 11:57:13;;;;;;;21.15;18.85;;;13.10;92.20;;;;;;4749927;30;20059;-79
2023/04/06 11:59:39;;;;;;;24.98;19.58;;;13.10;91.30;;;;;;4763888;30;20101;-79
2023/04/06 12:02:05;;;;;;;23.55;18.58;;;13.30;91.60;;;;;;4747238;30;20036;-78
2023/04/06 12:04:31;;;;;;;22.08;18.80;;;13.40;92.20;;;;;;4763559;30;20043;-78
2023/04/06 12:06:57;;;;;;;23.08;18.65;;;13.50;92.90;;;;;;4763235;30;20054;-78
2023/04/06 12:09:23;;;;;;;22.38;19.83;;;13.70;91.90;;;;;;4761435;30;20146;-78
2023/04/06 12:11:48;;;;;;;22.38;19.23;;;13.70;90.20;;;;;;4763180;30;20147;-79
2023/04/06 12:14:14;;;;;;;24.13;20.15;;;13.80;90.60;;;;;;4763149;30;20601;-78
2023/04/06 12:16:40;;;;;;;21.40;18.42;;;13.70;90.40;;;;;;4763135;30;20036;-78
2023/04/06 12:19:06;;;;;;;24.42;19.45;;;13.80;91.40;;;;;;4746625;30;20039;-78
2023/04/06 12:21:33;;;;;;;21.77;18.33;;;13.90;91.80;;;;;;4748024;30;20082;-79
2023/04/06 12:24:00;;;;;;;25.65;20.02;;;14.20;91.00;;;;;;4764389;30;20052;-78
2023/04/06 12:26:26;;;;;;;55.55;20.83;;;14.00;91.40;;;;;;4761755;30;20056;-79
2023/04/06 12:28:52;;;;;;;24.80;18.52;;;14.00;91.60;;;;;;4762631;30;20062;-79
2023/04/06 12:31:19;;;;;;;26.67;19.23;;;13.80;90.20;;;;;;4758430;30;20092;-78
2023/04/06 12:33:49;;;;;;;23.02;17.88;;;13.70;91.40;;;;;;4762778;30;20527;-78
2023/04/06 12:36:21;;;;;;;23.15;18.70;;;13.70;91.30;;;;;;4747809;30;20036;-78
2023/04/06 12:38:51;;;;;;;20.77;17.60;;;13.70;91.30;;;;;;4762282;30;20202;-77
2023/04/06 12:41:16;;;;;;;22.17;17.95;;;13.60;90.80;;;;;;4745220;30;20484;-79
2023/04/06 12:43:43;;;;;;;21.70;18.42;;;13.60;91.30;;;;;;4748920;30;20042;-79